sensor_id;sensor_type;location;lat;lon;timestamp;pressure;altitude;pressure_sealevel;temperature;humidity
65659;BME280;60181;53.258;6.932;2023-07-31T00:00:04;100904.85;;;21.40;63.96
65659;BME280;60181;53.258;6.932;2023-07-31T00:04:14;100902.17;;;21.40;64.00
65659;BME280;60181;53.258;6.932;2023-07-31T00:08:24;100898.71;;;21.39;63.89
65659;BME280;60181;53.258;6.932;2023-07-31T00:12:34;100895.45;;;21.38;63.98
65659;BME280;60181;53.258;6.932;2023-07-31T00:16:44;100893.14;;;21.38;64.01
65659;BME280;60181;53.258;6.932;2023-07-31T00:20:54;100891.47;;;21.37;64.08
65659;BME280;60181;53.258;6.932;2023-07-31T00:25:04;100888.42;;;21.36;64.19
65659;BME280;60181;53.258;6.932;2023-07-31T00:29:14;100884.99;;;21.36;64.22
65659;BME280;60181;53.258;6.932;2023-07-31T00:33:24;100881.60;;;21.35;64.20
65659;BME280;60181;53.258;6.932;2023-07-31T00:37:34;100881.19;;;21.35;64.13
65659;BME280;60181;53.258;6.932;2023-07-31T00:41:44;100879.85;;;21.35;64.12
65659;BME280;60181;53.258;6.932;2023-07-31T00:45:54;100877.26;;;21.34;64.18
65659;BME280;60181;53.258;6.932;2023-07-31T00:50:04;100876.87;;;21.34;64.34
65659;BME280;60181;53.258;6.932;2023-07-31T00:54:14;100873.89;;;21.33;64.27
65659;BME280;60181;53.258;6.932;2023-07-31T00:58:24;100869.87;;;21.33;64.54
65659;BME280;60181;53.258;6.932;2023-07-31T01:02:34;100866.41;;;21.32;64.33
65659;BME280;60181;53.258;6.932;2023-07-31T01:06:48;100863.97;;;21.32;64.36
65659;BME280;60181;53.258;6.932;2023-07-31T01:11:00;100860.42;;;21.31;64.31
65659;BME280;60181;53.258;6.932;2023-07-31T01:15:05;100857.01;;;21.30;64.52
65659;BME280;60181;53.258;6.932;2023-07-31T01:19:14;100852.76;;;21.30;64.24
65659;BME280;60181;53.258;6.932;2023-07-31T01:27:34;100846.45;;;21.29;64.48
65659;BME280;60181;53.258;6.932;2023-07-31T01:31:44;100843.78;;;21.28;64.31
65659;BME280;60181;53.258;6.932;2023-07-31T01:35:54;100841.05;;;21.28;64.56
65659;BME280;60181;53.258;6.932;2023-07-31T01:40:04;100837.49;;;21.27;64.73
65659;BME280;60181;53.258;6.932;2023-07-31T01:44:14;100834.17;;;21.26;64.79
65659;BME280;60181;53.258;6.932;2023-07-31T01:48:24;100830.83;;;21.26;64.74
65659;BME280;60181;53.258;6.932;2023-07-31T01:52:34;100827.35;;;21.25;64.74
65659;BME280;60181;53.258;6.932;2023-07-31T01:56:44;100825.95;;;21.25;64.71
65659;BME280;60181;53.258;6.932;2023-07-31T02:00:54;100823.80;;;21.24;64.82
65659;BME280;60181;53.258;6.932;2023-07-31T02:05:04;100819.96;;;21.24;64.82
65659;BME280;60181;53.258;6.932;2023-07-31T02:09:14;100815.16;;;21.23;64.77
65659;BME280;60181;53.258;6.932;2023-07-31T02:13:24;100812.55;;;21.23;64.82
65659;BME280;60181;53.258;6.932;2023-07-31T02:17:34;100809.58;;;21.22;64.86
65659;BME280;60181;53.258;6.932;2023-07-31T02:21:44;100806.17;;;21.22;64.70
65659;BME280;60181;53.258;6.932;2023-07-31T02:25:54;100803.07;;;21.22;64.79
65659;BME280;60181;53.258;6.932;2023-07-31T02:30:04;100800.00;;;21.21;64.79
65659;BME280;60181;53.258;6.932;2023-07-31T02:34:14;100796.26;;;21.21;64.76
65659;BME280;60181;53.258;6.932;2023-07-31T02:38:24;100792.83;;;21.21;64.69
65659;BME280;60181;53.258;6.932;2023-07-31T02:42:34;100790.26;;;21.21;64.69
65659;BME280;60181;53.258;6.932;2023-07-31T02:46:44;100786.36;;;21.21;64.71
65659;BME280;60181;53.258;6.932;2023-07-31T02:50:54;100783.03;;;21.20;64.65
65659;BME280;60181;53.258;6.932;2023-07-31T02:55:04;100782.05;;;21.20;64.81
65659;BME280;60181;53.258;6.932;2023-07-31T02:59:14;100780.20;;;21.19;65.04
65659;BME280;60181;53.258;6.932;2023-07-31T03:03:24;100777.37;;;21.19;64.91
65659;BME280;60181;53.258;6.932;2023-07-31T03:07:34;100772.38;;;21.19;65.05
65659;BME280;60181;53.258;6.932;2023-07-31T03:11:44;100768.06;;;21.19;64.89
65659;BME280;60181;53.258;6.932;2023-07-31T03:15:54;100764.23;;;21.18;64.87
65659;BME280;60181;53.258;6.932;2023-07-31T03:20:04;100760.69;;;21.18;65.69
65659;BME280;60181;53.258;6.932;2023-07-31T03:24:14;100757.93;;;21.17;65.04
65659;BME280;60181;53.258;6.932;2023-07-31T03:28:24;100754.80;;;21.16;64.94
65659;BME280;60181;53.258;6.932;2023-07-31T03:32:34;100753.53;;;21.16;64.90
65659;BME280;60181;53.258;6.932;2023-07-31T03:36:44;100752.72;;;21.16;64.84
65659;BME280;60181;53.258;6.932;2023-07-31T03:40:54;100750.64;;;21.15;64.91
65659;BME280;60181;53.258;6.932;2023-07-31T03:45:04;100748.39;;;21.14;64.87
65659;BME280;60181;53.258;6.932;2023-07-31T03:49:14;100748.16;;;21.14;65.98
65659;BME280;60181;53.258;6.932;2023-07-31T03:53:24;100747.41;;;21.13;65.31
65659;BME280;60181;53.258;6.932;2023-07-31T03:57:34;100746.59;;;21.13;64.82
65659;BME280;60181;53.258;6.932;2023-07-31T04:01:44;100745.39;;;21.14;65.16
65659;BME280;60181;53.258;6.932;2023-07-31T04:05:54;100743.91;;;21.14;64.88
65659;BME280;60181;53.258;6.932;2023-07-31T04:10:04;100740.05;;;21.15;64.88
65659;BME280;60181;53.258;6.932;2023-07-31T04:14:14;100737.98;;;21.15;65.15
65659;BME280;60181;53.258;6.932;2023-07-31T04:18:24;100737.00;;;21.14;65.42
65659;BME280;60181;53.258;6.932;2023-07-31T04:22:34;100734.59;;;21.13;65.25
65659;BME280;60181;53.258;6.932;2023-07-31T04:26:44;100733.53;;;21.12;65.59
65659;BME280;60181;53.258;6.932;2023-07-31T04:30:54;100732.36;;;21.12;65.29
65659;BME280;60181;53.258;6.932;2023-07-31T04:35:04;100730.06;;;21.10;65.37
65659;BME280;60181;53.258;6.932;2023-07-31T04:39:14;100727.51;;;21.09;65.18
65659;BME280;60181;53.258;6.932;2023-07-31T04:43:24;100724.86;;;21.08;65.07
65659;BME280;60181;53.258;6.932;2023-07-31T04:47:34;100721.73;;;21.06;64.94
65659;BME280;60181;53.258;6.932;2023-07-31T04:51:44;100721.25;;;21.05;64.92
65659;BME280;60181;53.258;6.932;2023-07-31T04:55:54;100719.26;;;21.04;64.75
65659;BME280;60181;53.258;6.932;2023-07-31T05:00:04;100718.36;;;21.03;64.76
65659;BME280;60181;53.258;6.932;2023-07-31T05:04:14;100717.44;;;21.03;64.73
65659;BME280;60181;53.258;6.932;2023-07-31T05:08:24;100717.03;;;21.02;64.73
65659;BME280;60181;53.258;6.932;2023-07-31T05:12:34;100715.30;;;21.02;64.72
65659;BME280;60181;53.258;6.932;2023-07-31T05:16:44;100714.06;;;21.02;64.75
65659;BME280;60181;53.258;6.932;2023-07-31T05:20:54;100710.78;;;21.03;64.44
65659;BME280;60181;53.258;6.932;2023-07-31T05:25:04;100707.20;;;21.03;64.52
65659;BME280;60181;53.258;6.932;2023-07-31T05:29:14;100703.44;;;21.04;64.45
65659;BME280;60181;53.258;6.932;2023-07-31T05:33:24;100698.69;;;21.04;64.45
65659;BME280;60181;53.258;6.932;2023-07-31T05:37:33;100693.77;;;21.05;64.43
65659;BME280;60181;53.258;6.932;2023-07-31T05:41:44;100689.26;;;21.05;64.45
65659;BME280;60181;53.258;6.932;2023-07-31T05:45:54;100685.60;;;21.05;64.37
65659;BME280;60181;53.258;6.932;2023-07-31T05:50:04;100682.67;;;21.05;64.41
65659;BME280;60181;53.258;6.932;2023-07-31T05:54:13;100679.52;;;21.05;64.42
65659;BME280;60181;53.258;6.932;2023-07-31T05:58:23;100676.18;;;21.05;64.37
65659;BME280;60181;53.258;6.932;2023-07-31T06:02:33;100673.02;;;21.05;64.33
65659;BME280;60181;53.258;6.932;2023-07-31T06:06:43;100670.29;;;21.05;64.37
65659;BME280;60181;53.258;6.932;2023-07-31T06:10:53;100667.21;;;21.05;64.33
65659;BME280;60181;53.258;6.932;2023-07-31T06:15:04;100665.46;;;21.05;64.38
65659;BME280;60181;53.258;6.932;2023-07-31T06:19:13;100664.18;;;21.05;64.38
65659;BME280;60181;53.258;6.932;2023-07-31T06:23:23;100662.13;;;21.05;64.38
65659;BME280;60181;53.258;6.932;2023-07-31T06:27:33;100658.72;;;21.04;64.33
65659;BME280;60181;53.258;6.932;2023-07-31T06:31:44;100657.46;;;21.05;64.29
65659;BME280;60181;53.258;6.932;2023-07-31T06:35:53;100654.86;;;21.05;64.24
65659;BME280;60181;53.258;6.932;2023-07-31T06:40:04;100651.87;;;21.05;64.21
65659;BME280;60181;53.258;6.932;2023-07-31T06:44:13;100649.62;;;21.06;64.17
65659;BME280;60181;53.258;6.932;2023-07-31T06:48:23;100646.12;;;21.06;64.17
65659;BME280;60181;53.258;6.932;2023-07-31T06:52:33;100642.29;;;21.06;64.17
65659;BME280;60181;53.258;6.932;2023-07-31T06:56:43;100637.70;;;21.06;64.10
65659;BME280;60181;53.258;6.932;2023-07-31T07:00:54;100633.64;;;21.06;64.13
65659;BME280;60181;53.258;6.932;2023-07-31T07:05:04;100630.21;;;21.06;64.10
65659;BME280;60181;53.258;6.932;2023-07-31T07:09:13;100625.87;;;21.06;64.12
65659;BME280;60181;53.258;6.932;2023-07-31T07:13:23;100621.36;;;21.07;64.07
65659;BME280;60181;53.258;6.932;2023-07-31T07:17:33;100616.94;;;21.08;64.05
65659;BME280;60181;53.258;6.932;2023-07-31T07:21:43;100612.59;;;21.08;64.05
65659;BME280;60181;53.258;6.932;2023-07-31T07:25:53;100607.67;;;21.09;63.98
65659;BME280;60181;53.258;6.932;2023-07-31T07:30:04;100602.51;;;21.10;63.97
65659;BME280;60181;53.258;6.932;2023-07-31T07:34:13;100597.76;;;21.10;64.01
65659;BME280;60181;53.258;6.932;2023-07-31T07:38:23;100594.17;;;21.10;64.05
65659;BME280;60181;53.258;6.932;2023-07-31T07:42:33;100589.59;;;21.10;64.05
65659;BME280;60181;53.258;6.932;2023-07-31T07:46:43;100585.27;;;21.10;64.03
65659;BME280;60181;53.258;6.932;2023-07-31T07:50:53;100580.10;;;21.10;64.25
65659;BME280;60181;53.258;6.932;2023-07-31T07:55:04;100576.67;;;21.10;64.64
65659;BME280;60181;53.258;6.932;2023-07-31T07:59:13;100573.49;;;21.11;64.57
65659;BME280;60181;53.258;6.932;2023-07-31T08:03:24;100570.33;;;21.11;64.56
65659;BME280;60181;53.258;6.932;2023-07-31T08:07:33;100566.75;;;21.12;64.66
65659;BME280;60181;53.258;6.932;2023-07-31T08:11:43;100562.80;;;21.13;64.74
65659;BME280;60181;53.258;6.932;2023-07-31T08:15:53;100559.35;;;21.14;64.77
65659;BME280;60181;53.258;6.932;2023-07-31T08:20:04;100555.67;;;21.15;64.82
65659;BME280;60181;53.258;6.932;2023-07-31T08:24:13;100553.42;;;21.16;64.91
65659;BME280;60181;53.258;6.932;2023-07-31T08:28:23;100550.81;;;21.18;64.82
65659;BME280;60181;53.258;6.932;2023-07-31T08:32:33;100548.36;;;21.19;64.71
65659;BME280;60181;53.258;6.932;2023-07-31T08:36:43;100544.82;;;21.20;64.57
65659;BME280;60181;53.258;6.932;2023-07-31T08:40:53;100542.05;;;21.22;64.57
65659;BME280;60181;53.258;6.932;2023-07-31T08:45:04;100539.34;;;21.24;64.60
65659;BME280;60181;53.258;6.932;2023-07-31T08:49:13;100536.07;;;21.26;64.40
65659;BME280;60181;53.258;6.932;2023-07-31T08:53:23;100534.53;;;21.28;64.43
65659;BME280;60181;53.258;6.932;2023-07-31T08:57:34;100532.65;;;21.29;64.43
65659;BME280;60181;53.258;6.932;2023-07-31T09:01:44;100529.30;;;21.30;64.38
65659;BME280;60181;53.258;6.932;2023-07-31T09:05:53;100526.12;;;21.31;64.42
65659;BME280;60181;53.258;6.932;2023-07-31T09:10:04;100522.27;;;21.32;64.39
65659;BME280;60181;53.258;6.932;2023-07-31T09:14:13;100518.58;;;21.33;64.36
65659;BME280;60181;53.258;6.932;2023-07-31T09:18:23;100514.75;;;21.33;64.42
65659;BME280;60181;53.258;6.932;2023-07-31T09:22:34;100510.68;;;21.33;64.39
65659;BME280;60181;53.258;6.932;2023-07-31T09:26:43;100507.42;;;21.33;64.38
65659;BME280;60181;53.258;6.932;2023-07-31T09:30:53;100504.26;;;21.33;64.27
65659;BME280;60181;53.258;6.932;2023-07-31T09:35:19;100501.15;;;21.34;64.34
65659;BME280;60181;53.258;6.932;2023-07-31T09:39:14;100497.56;;;21.34;64.35
65659;BME280;60181;53.258;6.932;2023-07-31T09:43:23;100494.67;;;21.34;64.33
65659;BME280;60181;53.258;6.932;2023-07-31T09:47:33;100492.00;;;21.34;64.30
65659;BME280;60181;53.258;6.932;2023-07-31T09:51:43;100489.72;;;21.35;64.29
65659;BME280;60181;53.258;6.932;2023-07-31T09:55:53;100487.30;;;21.36;64.27
65659;BME280;60181;53.258;6.932;2023-07-31T10:00:03;100484.03;;;21.36;64.27
65659;BME280;60181;53.258;6.932;2023-07-31T10:04:13;100479.88;;;21.36;64.27
65659;BME280;60181;53.258;6.932;2023-07-31T10:08:26;100474.69;;;21.38;64.26
65659;BME280;60181;53.258;6.932;2023-07-31T10:12:33;100469.90;;;21.38;64.21
65659;BME280;60181;53.258;6.932;2023-07-31T10:16:43;100467.81;;;21.39;64.25
65659;BME280;60181;53.258;6.932;2023-07-31T10:20:54;100464.08;;;21.39;64.23
65659;BME280;60181;53.258;6.932;2023-07-31T10:25:04;100461.17;;;21.39;64.38
65659;BME280;60181;53.258;6.932;2023-07-31T10:29:14;100457.83;;;21.38;64.35
65659;BME280;60181;53.258;6.932;2023-07-31T10:33:23;100453.83;;;21.38;64.37
65659;BME280;60181;53.258;6.932;2023-07-31T10:37:40;100450.01;;;21.39;64.33
65659;BME280;60181;53.258;6.932;2023-07-31T10:41:43;100446.56;;;21.39;64.21
65659;BME280;60181;53.258;6.932;2023-07-31T10:45:53;100443.06;;;21.40;64.31
65659;BME280;60181;53.258;6.932;2023-07-31T10:50:12;100439.47;;;21.40;64.28
65659;BME280;60181;53.258;6.932;2023-07-31T10:54:13;100437.23;;;21.40;64.30
65659;BME280;60181;53.258;6.932;2023-07-31T10:58:23;100436.14;;;21.40;64.29
65659;BME280;60181;53.258;6.932;2023-07-31T11:02:33;100435.57;;;21.40;64.28
65659;BME280;60181;53.258;6.932;2023-07-31T11:06:51;100436.21;;;21.40;64.34
65659;BME280;60181;53.258;6.932;2023-07-31T11:11:06;100438.30;;;21.40;64.37
65659;BME280;60181;53.258;6.932;2023-07-31T11:15:03;100438.90;;;21.40;64.34
65659;BME280;60181;53.258;6.932;2023-07-31T11:19:13;100439.11;;;21.41;64.20
65659;BME280;60181;53.258;6.932;2023-07-31T11:23:23;100438.97;;;21.43;65.26
65659;BME280;60181;53.258;6.932;2023-07-31T11:27:38;100439.31;;;21.47;65.29
65659;BME280;60181;53.258;6.932;2023-07-31T11:31:43;100438.84;;;21.49;65.53
65659;BME280;60181;53.258;6.932;2023-07-31T11:35:53;100437.13;;;21.51;65.66
65659;BME280;60181;53.258;6.932;2023-07-31T11:40:03;100435.27;;;21.52;65.79
65659;BME280;60181;53.258;6.932;2023-07-31T11:44:13;100433.95;;;21.52;65.69
65659;BME280;60181;53.258;6.932;2023-07-31T11:48:27;100431.36;;;21.53;65.73
65659;BME280;60181;53.258;6.932;2023-07-31T11:52:34;100428.45;;;21.55;65.56
65659;BME280;60181;53.258;6.932;2023-07-31T11:56:43;100424.81;;;21.57;65.62
65659;BME280;60181;53.258;6.932;2023-07-31T12:00:53;100421.12;;;21.59;65.69
65659;BME280;60181;53.258;6.932;2023-07-31T12:05:03;100416.38;;;21.60;65.89
65659;BME280;60181;53.258;6.932;2023-07-31T12:09:16;100414.34;;;21.61;65.97
65659;BME280;60181;53.258;6.932;2023-07-31T12:13:24;100415.80;;;21.60;65.94
65659;BME280;60181;53.258;6.932;2023-07-31T12:17:33;100416.79;;;21.59;65.77
65659;BME280;60181;53.258;6.932;2023-07-31T12:21:43;100416.79;;;21.59;65.84
65659;BME280;60181;53.258;6.932;2023-07-31T12:30:03;100416.11;;;21.61;65.46
65659;BME280;60181;53.258;6.932;2023-07-31T12:34:16;100414.48;;;21.62;65.41
65659;BME280;60181;53.258;6.932;2023-07-31T12:38:23;100413.49;;;21.62;65.43
65659;BME280;60181;53.258;6.932;2023-07-31T12:42:33;100412.99;;;21.62;65.42
65659;BME280;60181;53.258;6.932;2023-07-31T12:46:43;100413.59;;;21.62;65.41
65659;BME280;60181;53.258;6.932;2023-07-31T12:50:53;100413.32;;;21.62;65.35
65659;BME280;60181;53.258;6.932;2023-07-31T12:55:03;100414.65;;;21.62;65.30
65659;BME280;60181;53.258;6.932;2023-07-31T12:59:13;100414.59;;;21.62;65.29
65659;BME280;60181;53.258;6.932;2023-07-31T13:03:23;100414.09;;;21.62;65.25
65659;BME280;60181;53.258;6.932;2023-07-31T13:07:33;100413.09;;;21.62;65.23
65659;BME280;60181;53.258;6.932;2023-07-31T13:11:43;100411.49;;;21.62;65.23
65659;BME280;60181;53.258;6.932;2023-07-31T13:15:53;100410.10;;;21.62;65.19
65659;BME280;60181;53.258;6.932;2023-07-31T13:20:03;100410.42;;;21.62;65.26
65659;BME280;60181;53.258;6.932;2023-07-31T13:24:13;100412.34;;;21.61;65.31
65659;BME280;60181;53.258;6.932;2023-07-31T13:28:23;100412.13;;;21.60;65.37
65659;BME280;60181;53.258;6.932;2023-07-31T13:32:33;100409.45;;;21.58;65.50
65659;BME280;60181;53.258;6.932;2023-07-31T13:36:43;100406.34;;;21.57;65.43
65659;BME280;60181;53.258;6.932;2023-07-31T13:40:53;100405.13;;;21.56;65.38
65659;BME280;60181;53.258;6.932;2023-07-31T13:45:03;100405.91;;;21.54;65.40
65659;BME280;60181;53.258;6.932;2023-07-31T13:49:13;100407.67;;;21.54;65.31
65659;BME280;60181;53.258;6.932;2023-07-31T13:53:23;100410.00;;;21.54;65.25
65659;BME280;60181;53.258;6.932;2023-07-31T13:57:33;100412.30;;;21.54;65.17
65659;BME280;60181;53.258;6.932;2023-07-31T14:01:43;100413.22;;;21.55;65.11
65659;BME280;60181;53.258;6.932;2023-07-31T14:05:53;100418.57;;;21.57;65.05
65659;BME280;60181;53.258;6.932;2023-07-31T14:10:03;100424.86;;;21.59;65.03
65659;BME280;60181;53.258;6.932;2023-07-31T14:14:13;100426.28;;;21.61;65.04
65659;BME280;60181;53.258;6.932;2023-07-31T14:18:23;100424.42;;;21.62;65.19
65659;BME280;60181;53.258;6.932;2023-07-31T14:22:33;100420.29;;;21.63;65.23
65659;BME280;60181;53.258;6.932;2023-07-31T14:26:43;100412.30;;;21.63;65.22
65659;BME280;60181;53.258;6.932;2023-07-31T14:30:53;100405.13;;;21.63;65.34
65659;BME280;60181;53.258;6.932;2023-07-31T14:35:03;100400.75;;;21.62;65.49
65659;BME280;60181;53.258;6.932;2023-07-31T14:39:13;100396.18;;;21.61;65.56
65659;BME280;60181;53.258;6.932;2023-07-31T14:43:23;100394.51;;;21.61;65.57
65659;BME280;60181;53.258;6.932;2023-07-31T14:47:33;100392.94;;;21.61;65.56
65659;BME280;60181;53.258;6.932;2023-07-31T14:51:43;100391.06;;;21.60;65.57
65659;BME280;60181;53.258;6.932;2023-07-31T14:55:53;100391.03;;;21.59;65.59
65659;BME280;60181;53.258;6.932;2023-07-31T15:00:03;100391.78;;;21.58;65.66
65659;BME280;60181;53.258;6.932;2023-07-31T15:04:13;100393.48;;;21.58;65.55
65659;BME280;60181;53.258;6.932;2023-07-31T15:08:23;100392.81;;;21.57;65.53
65659;BME280;60181;53.258;6.932;2023-07-31T15:12:33;100392.07;;;21.57;65.55
65659;BME280;60181;53.258;6.932;2023-07-31T15:16:43;100391.57;;;21.57;65.58
65659;BME280;60181;53.258;6.932;2023-07-31T15:20:53;100390.44;;;21.57;65.62
65659;BME280;60181;53.258;6.932;2023-07-31T15:25:03;100386.60;;;21.56;65.69
65659;BME280;60181;53.258;6.932;2023-07-31T15:29:13;100382.45;;;21.56;65.69
65659;BME280;60181;53.258;6.932;2023-07-31T15:33:23;100377.55;;;21.55;65.71
65659;BME280;60181;53.258;6.932;2023-07-31T15:37:33;100371.41;;;21.54;65.75
65659;BME280;60181;53.258;6.932;2023-07-31T15:41:43;100364.40;;;21.54;65.72
65659;BME280;60181;53.258;6.932;2023-07-31T15:45:53;100356.59;;;21.53;65.72
65659;BME280;60181;53.258;6.932;2023-07-31T15:50:03;100348.27;;;21.53;65.68
65659;BME280;60181;53.258;6.932;2023-07-31T15:54:13;100340.89;;;21.52;65.72
65659;BME280;60181;53.258;6.932;2023-07-31T15:58:23;100333.22;;;21.51;65.71
65659;BME280;60181;53.258;6.932;2023-07-31T16:02:33;100327.15;;;21.51;65.74
65659;BME280;60181;53.258;6.932;2023-07-31T16:06:43;100321.94;;;21.50;65.74
65659;BME280;60181;53.258;6.932;2023-07-31T16:10:53;100317.94;;;21.49;65.70
65659;BME280;60181;53.258;6.932;2023-07-31T16:15:03;100313.62;;;21.48;65.71
65659;BME280;60181;53.258;6.932;2023-07-31T16:19:13;100310.82;;;21.48;65.84
65659;BME280;60181;53.258;6.932;2023-07-31T16:23:23;100307.51;;;21.47;65.84
65659;BME280;60181;53.258;6.932;2023-07-31T16:27:33;100305.44;;;21.47;65.78
65659;BME280;60181;53.258;6.932;2023-07-31T16:31:43;100302.20;;;21.46;65.86
65659;BME280;60181;53.258;6.932;2023-07-31T16:35:53;100297.80;;;21.45;65.86
65659;BME280;60181;53.258;6.932;2023-07-31T16:40:03;100291.83;;;21.44;65.79
65659;BME280;60181;53.258;6.932;2023-07-31T16:44:13;100285.92;;;21.44;65.89
65659;BME280;60181;53.258;6.932;2023-07-31T16:48:23;100282.28;;;21.43;65.89
65659;BME280;60181;53.258;6.932;2023-07-31T16:52:33;100279.21;;;21.42;65.97
65659;BME280;60181;53.258;6.932;2023-07-31T16:56:43;100277.23;;;21.42;65.92
65659;BME280;60181;53.258;6.932;2023-07-31T17:00:53;100274.56;;;21.41;65.98
65659;BME280;60181;53.258;6.932;2023-07-31T17:05:03;100271.66;;;21.41;66.01
65659;BME280;60181;53.258;6.932;2023-07-31T17:09:13;100267.85;;;21.40;66.00
65659;BME280;60181;53.258;6.932;2023-07-31T17:13:23;100263.31;;;21.39;66.05
65659;BME280;60181;53.258;6.932;2023-07-31T17:17:33;100259.31;;;21.38;66.05
65659;BME280;60181;53.258;6.932;2023-07-31T17:21:43;100255.44;;;21.38;66.10
65659;BME280;60181;53.258;6.932;2023-07-31T17:25:53;100251.10;;;21.37;66.04
65659;BME280;60181;53.258;6.932;2023-07-31T17:30:03;100246.36;;;21.36;66.14
65659;BME280;60181;53.258;6.932;2023-07-31T17:34:13;100242.39;;;21.36;66.23
65659;BME280;60181;53.258;6.932;2023-07-31T17:38:23;100238.32;;;21.35;66.22
65659;BME280;60181;53.258;6.932;2023-07-31T17:42:33;100235.28;;;21.34;66.30
65659;BME280;60181;53.258;6.932;2023-07-31T17:46:43;100231.47;;;21.33;66.31
65659;BME280;60181;53.258;6.932;2023-07-31T17:50:53;100228.50;;;21.32;66.40
65659;BME280;60181;53.258;6.932;2023-07-31T17:55:03;100225.26;;;21.31;66.41
65659;BME280;60181;53.258;6.932;2023-07-31T17:59:13;100224.69;;;21.31;66.43
65659;BME280;60181;53.258;6.932;2023-07-31T18:03:23;100223.14;;;21.30;66.43
65659;BME280;60181;53.258;6.932;2023-07-31T18:07:33;100221.73;;;21.29;66.45
65659;BME280;60181;53.258;6.932;2023-07-31T18:11:42;100216.50;;;21.28;66.47
65659;BME280;60181;53.258;6.932;2023-07-31T18:15:52;100212.46;;;21.27;66.56
65659;BME280;60181;53.258;6.932;2023-07-31T18:20:03;100208.12;;;21.27;66.54
65659;BME280;60181;53.258;6.932;2023-07-31T18:24:12;100202.39;;;21.26;66.58
65659;BME280;60181;53.258;6.932;2023-07-31T18:28:22;100196.25;;;21.26;66.57
65659;BME280;60181;53.258;6.932;2023-07-31T18:32:32;100189.59;;;21.25;66.58
65659;BME280;60181;53.258;6.932;2023-07-31T18:36:43;100181.45;;;21.25;66.56
65659;BME280;60181;53.258;6.932;2023-07-31T18:40:52;100178.39;;;21.24;66.62
65659;BME280;60181;53.258;6.932;2023-07-31T18:45:03;100174.72;;;21.24;66.58
65659;BME280;60181;53.258;6.932;2023-07-31T18:49:12;100172.49;;;21.24;66.61
65659;BME280;60181;53.258;6.932;2023-07-31T18:53:23;100168.69;;;21.23;66.59
65659;BME280;60181;53.258;6.932;2023-07-31T18:57:33;100162.92;;;21.23;66.57
65659;BME280;60181;53.258;6.932;2023-07-31T19:01:42;100159.28;;;21.22;66.60
65659;BME280;60181;53.258;6.932;2023-07-31T19:06:01;100148.55;;;21.22;66.55
65659;BME280;60181;53.258;6.932;2023-07-31T19:10:03;100144.22;;;21.21;66.61
65659;BME280;60181;53.258;6.932;2023-07-31T19:14:12;100140.75;;;21.21;66.62
65659;BME280;60181;53.258;6.932;2023-07-31T19:18:22;100138.34;;;21.21;66.59
65659;BME280;60181;53.258;6.932;2023-07-31T19:22:32;100135.58;;;21.20;66.61
65659;BME280;60181;53.258;6.932;2023-07-31T19:26:42;100132.11;;;21.20;66.60
65659;BME280;60181;53.258;6.932;2023-07-31T19:30:52;100129.11;;;21.19;66.62
65659;BME280;60181;53.258;6.932;2023-07-31T19:35:03;100125.55;;;21.19;66.57
65659;BME280;60181;53.258;6.932;2023-07-31T19:39:12;100122.22;;;21.19;66.53
65659;BME280;60181;53.258;6.932;2023-07-31T19:43:22;100119.05;;;21.19;66.49
65659;BME280;60181;53.258;6.932;2023-07-31T19:47:32;100116.79;;;21.19;66.46
65659;BME280;60181;53.258;6.932;2023-07-31T19:51:42;100114.56;;;21.20;66.48
65659;BME280;60181;53.258;6.932;2023-07-31T19:55:52;100110.63;;;21.20;66.44
65659;BME280;60181;53.258;6.932;2023-07-31T20:00:03;100105.03;;;21.20;66.43
65659;BME280;60181;53.258;6.932;2023-07-31T20:04:12;100098.94;;;21.20;66.39
65659;BME280;60181;53.258;6.932;2023-07-31T20:08:22;100091.38;;;21.21;66.37
65659;BME280;60181;53.258;6.932;2023-07-31T20:12:33;100084.06;;;21.21;66.37
65659;BME280;60181;53.258;6.932;2023-07-31T20:16:42;100075.96;;;21.21;66.34
65659;BME280;60181;53.258;6.932;2023-07-31T20:20:52;100068.87;;;21.21;66.36
65659;BME280;60181;53.258;6.932;2023-07-31T20:25:03;100063.37;;;21.21;66.34
65659;BME280;60181;53.258;6.932;2023-07-31T20:29:12;100061.44;;;21.21;66.32
65659;BME280;60181;53.258;6.932;2023-07-31T20:33:22;100057.95;;;21.21;66.29
65659;BME280;60181;53.258;6.932;2023-07-31T20:37:32;100057.48;;;21.23;66.60
65659;BME280;60181;53.258;6.932;2023-07-31T20:41:42;100056.73;;;21.24;66.55
65659;BME280;60181;53.258;6.932;2023-07-31T20:45:52;100053.85;;;21.25;66.40
65659;BME280;60181;53.258;6.932;2023-07-31T20:50:03;100048.81;;;21.26;66.58
65659;BME280;60181;53.258;6.932;2023-07-31T20:54:12;100048.05;;;21.27;66.96
65659;BME280;60181;53.258;6.932;2023-07-31T20:58:22;100046.53;;;21.28;66.91
65659;BME280;60181;53.258;6.932;2023-07-31T21:02:32;100042.60;;;21.29;66.70
65659;BME280;60181;53.258;6.932;2023-07-31T21:06:42;100038.48;;;21.29;67.13
65659;BME280;60181;53.258;6.932;2023-07-31T21:10:53;100034.55;;;21.30;67.21
65659;BME280;60181;53.258;6.932;2023-07-31T21:15:03;100031.45;;;21.31;67.40
65659;BME280;60181;53.258;6.932;2023-07-31T21:19:12;100026.12;;;21.31;68.03
65659;BME280;60181;53.258;6.932;2023-07-31T21:23:22;100021.98;;;21.29;68.19
65659;BME280;60181;53.258;6.932;2023-07-31T21:27:32;100017.81;;;21.28;68.35
65659;BME280;60181;53.258;6.932;2023-07-31T21:31:42;100013.62;;;21.25;68.58
65659;BME280;60181;53.258;6.932;2023-07-31T21:35:52;100008.85;;;21.23;68.66
65659;BME280;60181;53.258;6.932;2023-07-31T21:40:03;100004.17;;;21.21;68.50
65659;BME280;60181;53.258;6.932;2023-07-31T21:44:12;99997.50;;;21.19;68.62
65659;BME280;60181;53.258;6.932;2023-07-31T21:48:22;99989.73;;;21.17;68.64
65659;BME280;60181;53.258;6.932;2023-07-31T21:52:32;99981.13;;;21.14;68.62